Time;durP1;ratioP1;P1;durP2;ratioP2;P2;SDS_P1;SDS_P2;PMS_P1;PMS_P2;Temp;Humidity;BMP_temperature;BMP_pressure;BME280_temperature;BME280_humidity;BME280_pressure;Samples;Min_cycle;Max_cycle;Signal;HPM_P1;HPM_P2
2022/07/24 00:01:25;;;;;;;31.10;16.52;;;;;;;;;;4953312;28;20039;-87
2022/07/24 00:03:51;;;;;;;27.17;16.13;;;;;;;;;;4967143;28;20495;-86
2022/07/24 00:06:16;;;;;;;30.80;16.27;;;;;;;;;;4951549;28;20035;-86
2022/07/24 00:08:42;;;;;;;25.17;16.23;;;;;;;;;;4960133;28;20130;-86
2022/07/24 00:11:08;;;;;;;29.38;15.80;;;;;;;;;;4932990;28;20078;-86
2022/07/24 00:13:35;;;;;;;27.75;15.77;;;;;;;;;;4947142;29;20027;-87
2022/07/24 00:16:01;;;;;;;30.15;16.83;;;;;;;;;;4951870;28;20040;-87
2022/07/24 00:18:26;;;;;;;28.25;15.73;;;;;;;;;;4951941;28;20043;-86
2022/07/24 00:20:52;;;;;;;25.17;15.13;;;;;;;;;;4944285;28;20039;-87
2022/07/24 00:23:17;;;;;;;29.70;14.85;;;;;;;;;;4948021;28;20118;-86
2022/07/24 00:25:43;;;;;;;26.15;15.10;;;;;;;;;;4951097;28;20061;-87
2022/07/24 00:28:14;;;;;;;27.98;15.40;;;;;;;;;;4946633;28;20078;-87
2022/07/24 00:30:44;;;;;;;20.98;13.50;;;;;;;;;;4948017;28;20046;-87
2022/07/24 00:33:10;;;;;;;28.05;14.57;;;;;;;;;;4952140;28;20395;-87
2022/07/24 00:35:35;;;;;;;25.23;13.55;;;;;;;;;;4933550;28;20054;-87
2022/07/24 00:38:06;;;;;;;24.70;13.27;;;;;;;;;;4941014;28;20125;-87
2022/07/24 00:40:32;;;;;;;21.50;13.02;;;;;;;;;;4966607;28;20035;-88
2022/07/24 00:42:58;;;;;;;24.42;13.93;;;;;;;;;;4947212;28;20055;-87
2022/07/24 00:45:24;;;;;;;25.63;14.40;;;;;;;;;;4947554;28;20419;-88
2022/07/24 00:47:50;;;;;;;23.08;13.98;;;;;;;;;;4962616;28;20534;-88
2022/07/24 00:50:16;;;;;;;28.23;14.75;;;;;;;;;;4978419;28;20075;-88
2022/07/24 00:52:44;;;;;;;27.10;15.93;;;;;;;;;;4948904;29;20467;-88
2022/07/24 00:55:10;;;;;;;21.77;13.52;;;;;;;;;;4944774;28;20043;-89
2022/07/24 00:57:36;;;;;;;26.77;15.10;;;;;;;;;;4937389;28;20092;-88
2022/07/24 01:00:03;;;;;;;21.08;13.10;;;;;;;;;;4953862;28;20129;-88
2022/07/24 01:02:29;;;;;;;23.67;14.20;;;;;;;;;;4953279;28;20035;-88
2022/07/24 01:04:57;;;;;;;25.80;15.00;;;;;;;;;;4948128;29;20046;-88
2022/07/24 01:07:23;;;;;;;25.25;15.07;;;;;;;;;;4937422;28;20038;-89
2022/07/24 01:09:51;;;;;;;26.67;14.27;;;;;;;;;;4947781;28;20055;-88
2022/07/24 01:12:18;;;;;;;25.52;14.57;;;;;;;;;;4936051;28;20043;-88
2022/07/24 01:14:43;;;;;;;21.30;12.48;;;;;;;;;;4951320;28;20696;-89
2022/07/24 01:17:11;;;;;;;26.05;14.98;;;;;;;;;;4937450;28;20167;-89
2022/07/24 01:19:37;;;;;;;25.10;13.65;;;;;;;;;;4963754;28;20038;-89
2022/07/24 01:22:14;;;;;;;26.25;13.70;;;;;;;;;;4944474;28;20035;-89
2022/07/24 01:24:42;;;;;;;23.10;11.95;;;;;;;;;;4977837;28;20113;-89
2022/07/24 01:27:07;;;;;;;23.52;12.93;;;;;;;;;;4935849;28;20600;-89
2022/07/24 01:29:33;;;;;;;20.05;12.27;;;;;;;;;;4951694;28;20087;-89
2022/07/24 01:31:59;;;;;;;18.55;10.95;;;;;;;;;;4947696;28;20024;-89
2022/07/24 01:34:26;;;;;;;22.35;11.95;;;;;;;;;;4954575;28;20050;-89
2022/07/24 01:36:55;;;;;;;23.92;12.05;;;;;;;;;;4949902;28;20047;-89
2022/07/24 01:39:20;;;;;;;24.02;11.70;;;;;;;;;;4950241;28;20035;-90
2022/07/24 01:41:45;;;;;;;19.92;10.75;;;;;;;;;;4951946;28;20136;-89
2022/07/24 01:44:11;;;;;;;22.58;11.80;;;;;;;;;;4960242;28;20111;-89
2022/07/24 01:46:39;;;;;;;19.25;11.05;;;;;;;;;;4954145;29;20038;-89
2022/07/24 01:49:11;;;;;;;18.50;10.15;;;;;;;;;;4952037;28;20089;-89
2022/07/24 01:51:40;;;;;;;18.60;10.73;;;;;;;;;;4950414;28;20073;-89
2022/07/24 01:54:08;;;;;;;22.63;12.02;;;;;;;;;;4929727;28;20523;-89
2022/07/24 01:56:51;;;;;;;19.27;10.57;;;;;;;;;;4944648;28;20076;-89
2022/07/24 01:59:19;;;;;;;20.17;11.30;;;;;;;;;;4945085;28;20083;-89
2022/07/24 02:01:48;;;;;;;19.50;10.82;;;;;;;;;;4945932;29;20067;-90
2022/07/24 02:04:16;;;;;;;19.50;10.27;;;;;;;;;;4942953;28;20047;-89
2022/07/24 02:06:44;;;;;;;19.02;10.30;;;;;;;;;;4948168;28;20113;-89
2022/07/24 02:09:18;;;;;;;15.20;9.30;;;;;;;;;;4946078;29;20126;-90
2022/07/24 02:11:43;;;;;;;18.98;9.20;;;;;;;;;;4957814;28;20110;-89
2022/07/24 02:14:09;;;;;;;18.33;9.10;;;;;;;;;;4944826;28;20459;-89
2022/07/24 02:16:34;;;;;;;14.45;8.88;;;;;;;;;;4943533;28;20126;-90
2022/07/24 02:19:00;;;;;;;14.77;9.02;;;;;;;;;;4964368;28;20043;-89
2022/07/24 02:21:25;;;;;;;15.15;9.20;;;;;;;;;;4946137;28;20074;-89
2022/07/24 02:23:50;;;;;;;14.98;7.97;;;;;;;;;;4947341;28;20047;-89
2022/07/24 02:26:16;;;;;;;19.00;9.25;;;;;;;;;;4953375;28;20027;-89
2022/07/24 02:28:42;;;;;;;16.58;8.57;;;;;;;;;;4954372;28;20026;-89
2022/07/24 02:31:07;;;;;;;15.55;8.88;;;;;;;;;;4954054;28;20546;-89
2022/07/24 02:33:38;;;;;;;16.88;7.90;;;;;;;;;;4949945;28;20090;-89
2022/07/24 02:36:04;;;;;;;15.68;8.55;;;;;;;;;;4952191;28;20123;-90
2022/07/24 02:38:33;;;;;;;14.65;8.55;;;;;;;;;;4947804;28;20114;-90
2022/07/24 02:40:58;;;;;;;16.42;9.45;;;;;;;;;;4948474;28;20031;-90
2022/07/24 02:43:30;;;;;;;15.93;9.18;;;;;;;;;;4965776;28;20063;-90
2022/07/24 02:45:56;;;;;;;17.80;9.55;;;;;;;;;;4949874;28;20067;-89
2022/07/24 02:48:21;;;;;;;14.85;8.80;;;;;;;;;;4938495;28;20086;-89
2022/07/24 02:50:50;;;;;;;19.13;9.30;;;;;;;;;;4947990;28;20549;-90
2022/07/24 02:53:16;;;;;;;17.42;9.70;;;;;;;;;;4952877;28;20118;-91
2022/07/24 02:55:42;;;;;;;19.23;9.80;;;;;;;;;;4952759;28;20098;-91
2022/07/24 02:58:07;;;;;;;14.90;8.98;;;;;;;;;;4948078;28;20404;-89
2022/07/24 03:00:35;;;;;;;16.38;8.18;;;;;;;;;;4963367;28;20071;-90
2022/07/24 03:03:01;;;;;;;16.98;8.73;;;;;;;;;;4948651;28;20577;-91
2022/07/24 03:05:27;;;;;;;14.00;8.68;;;;;;;;;;4962575;28;20122;-91
2022/07/24 03:07:52;;;;;;;14.70;8.43;;;;;;;;;;4961965;28;20094;-91
2022/07/24 03:10:18;;;;;;;15.48;7.97;;;;;;;;;;4949337;28;20035;-90
2022/07/24 03:12:44;;;;;;;15.23;8.20;;;;;;;;;;4947112;28;20502;-91
2022/07/24 03:15:11;;;;;;;14.82;8.93;;;;;;;;;;4963219;28;20044;-91
2022/07/24 03:17:36;;;;;;;13.63;7.90;;;;;;;;;;4943024;28;20035;-90
2022/07/24 03:20:05;;;;;;;18.70;9.25;;;;;;;;;;4949685;28;20050;-90
2022/07/24 03:22:30;;;;;;;17.25;9.30;;;;;;;;;;4959482;28;20114;-90
2022/07/24 03:24:58;;;;;;;18.23;8.07;;;;;;;;;;4959123;28;20142;-90
2022/07/24 03:27:24;;;;;;;14.52;7.53;;;;;;;;;;4946788;28;20082;-90
2022/07/24 03:29:49;;;;;;;17.05;8.18;;;;;;;;;;4951382;28;20066;-90
2022/07/24 03:32:17;;;;;;;14.90;8.32;;;;;;;;;;4951646;28;20027;-90
2022/07/24 03:34:45;;;;;;;22.65;9.02;;;;;;;;;;4947636;29;20046;-91
2022/07/24 03:37:11;;;;;;;16.30;8.73;;;;;;;;;;4967296;28;20035;-90
2022/07/24 03:39:36;;;;;;;17.67;8.98;;;;;;;;;;4944445;28;20043;-91
2022/07/24 03:42:09;;;;;;;19.48;8.88;;;;;;;;;;4948221;28;20051;-90
2022/07/24 03:44:34;;;;;;;15.15;7.97;;;;;;;;;;4947144;28;20036;-89
2022/07/24 03:46:59;;;;;;;15.55;8.68;;;;;;;;;;4948902;28;20030;-89
2022/07/24 03:49:25;;;;;;;22.40;8.43;;;;;;;;;;4946691;29;20062;-88
2022/07/24 03:51:50;;;;;;;14.02;8.00;;;;;;;;;;4945618;29;20039;-90
2022/07/24 03:54:16;;;;;;;18.48;8.55;;;;;;;;;;4948327;28;20035;-86
2022/07/24 03:56:42;;;;;;;16.10;8.55;;;;;;;;;;4947842;28;20035;-89
2022/07/24 03:59:07;;;;;;;16.50;9.02;;;;;;;;;;4946905;28;20062;-89
2022/07/24 04:01:32;;;;;;;16.23;8.77;;;;;;;;;;4949441;28;20034;-90
2022/07/24 04:04:04;;;;;;;14.45;8.00;;;;;;;;;;4949160;28;20094;-90
2022/07/24 04:06:30;;;;;;;18.13;9.10;;;;;;;;;;4947370;28;20039;-90
2022/07/24 04:08:55;;;;;;;18.05;8.38;;;;;;;;;;4948137;28;20141;-88
2022/07/24 04:11:21;;;;;;;18.55;9.25;;;;;;;;;;4961716;28;21130;-90
2022/07/24 04:13:46;;;;;;;19.95;9.85;;;;;;;;;;4945571;28;20043;-90
2022/07/24 04:16:11;;;;;;;18.17;9.25;;;;;;;;;;4950274;28;20102;-91
2022/07/24 04:18:37;;;;;;;17.50;9.75;;;;;;;;;;4946679;28;20039;-90
2022/07/24 04:21:02;;;;;;;16.52;9.73;;;;;;;;;;4948375;28;20039;-90
2022/07/24 04:23:28;;;;;;;19.73;9.50;;;;;;;;;;4950397;28;20102;-89
2022/07/24 04:25:53;;;;;;;18.25;8.75;;;;;;;;;;4954202;29;20058;-89
2022/07/24 04:28:18;;;;;;;18.17;9.48;;;;;;;;;;4948168;28;20055;-90
2022/07/24 04:30:44;;;;;;;14.75;8.63;;;;;;;;;;4951186;28;20047;-90
2022/07/24 04:33:09;;;;;;;15.25;7.82;;;;;;;;;;4968850;28;20035;-90
2022/07/24 04:35:34;;;;;;;17.55;8.57;;;;;;;;;;4950037;28;20063;-90
2022/07/24 04:38:00;;;;;;;19.83;10.20;;;;;;;;;;4953516;29;20019;-89
2022/07/24 04:40:25;;;;;;;17.63;8.40;;;;;;;;;;4963409;28;20062;-89
2022/07/24 04:42:51;;;;;;;17.27;8.02;;;;;;;;;;4951416;28;20062;-91
2022/07/24 04:45:16;;;;;;;18.77;8.07;;;;;;;;;;4950163;28;20097;-89
2022/07/24 04:47:44;;;;;;;15.50;8.45;;;;;;;;;;4947711;28;20042;-88
2022/07/24 04:50:11;;;;;;;14.70;7.47;;;;;;;;;;4949221;28;20485;-88
2022/07/24 04:52:45;;;;;;;15.13;8.43;;;;;;;;;;4950320;28;20462;-90
2022/07/24 04:55:12;;;;;;;14.55;7.78;;;;;;;;;;4949654;28;20465;-89
2022/07/24 04:57:38;;;;;;;15.07;8.30;;;;;;;;;;4947865;28;20510;-89
2022/07/24 05:00:14;;;;;;;17.30;8.93;;;;;;;;;;4947693;28;20041;-89
2022/07/24 05:02:39;;;;;;;15.40;8.38;;;;;;;;;;4941639;28;20039;-89
2022/07/24 05:05:06;;;;;;;16.42;8.05;;;;;;;;;;4936291;28;20126;-88
2022/07/24 05:07:34;;;;;;;17.60;8.82;;;;;;;;;;4945766;28;20028;-87
2022/07/24 05:09:59;;;;;;;14.88;8.30;;;;;;;;;;4951681;28;20036;-88
2022/07/24 05:12:25;;;;;;;16.85;9.43;;;;;;;;;;4943904;28;20031;-88
2022/07/24 05:15:01;;;;;;;17.83;9.02;;;;;;;;;;4949535;28;20036;-88
2022/07/24 05:17:26;;;;;;;18.65;8.80;;;;;;;;;;4941783;28;20062;-87
2022/07/24 05:19:51;;;;;;;16.90;9.05;;;;;;;;;;4972088;28;20079;-86
2022/07/24 05:22:20;;;;;;;20.60;8.68;;;;;;;;;;4947218;28;20396;-86
2022/07/24 05:24:45;;;;;;;22.35;9.43;;;;;;;;;;4948095;28;20964;-86
2022/07/24 05:27:10;;;;;;;18.63;9.80;;;;;;;;;;4947132;28;20031;-86
2022/07/24 05:29:36;;;;;;;21.75;9.15;;;;;;;;;;4949273;28;20412;-87
2022/07/24 05:32:01;;;;;;;18.83;9.10;;;;;;;;;;4946872;28;20609;-86
2022/07/24 05:34:26;;;;;;;17.90;8.77;;;;;;;;;;4956901;28;20031;-85
2022/07/24 05:36:52;;;;;;;18.48;9.32;;;;;;;;;;4960365;28;20043;-85
2022/07/24 05:39:17;;;;;;;18.33;8.52;;;;;;;;;;4947470;28;20526;-85
2022/07/24 05:41:42;;;;;;;18.58;8.82;;;;;;;;;;4951632;28;20054;-85
2022/07/24 05:44:08;;;;;;;16.02;8.50;;;;;;;;;;4943346;28;20031;-83
2022/07/24 05:46:33;;;;;;;18.73;9.65;;;;;;;;;;4947064;29;20585;-84
2022/07/24 05:48:58;;;;;;;18.75;8.80;;;;;;;;;;4949059;28;20045;-84
2022/07/24 05:51:25;;;;;;;18.80;8.88;;;;;;;;;;4946997;28;20041;-85
2022/07/24 05:53:51;;;;;;;15.98;8.50;;;;;;;;;;4944415;28;20123;-85
2022/07/24 05:56:16;;;;;;;16.13;8.43;;;;;;;;;;4947565;28;20118;-83
2022/07/24 05:58:41;;;;;;;13.45;7.70;;;;;;;;;;4945385;29;20065;-83
2022/07/24 06:01:06;;;;;;;12.93;7.63;;;;;;;;;;4949575;28;20129;-83
2022/07/24 06:03:32;;;;;;;12.23;6.60;;;;;;;;;;4957567;28;20039;-83
2022/07/24 06:05:57;;;;;;;15.82;7.60;;;;;;;;;;4949825;28;20131;-84
2022/07/24 06:08:23;;;;;;;13.05;6.95;;;;;;;;;;4948600;28;20043;-84
2022/07/24 06:10:48;;;;;;;14.80;7.45;;;;;;;;;;4943115;28;20031;-83
2022/07/24 06:13:13;;;;;;;12.82;7.00;;;;;;;;;;4954564;28;20129;-84
2022/07/24 06:15:38;;;;;;;12.77;6.63;;;;;;;;;;4947465;28;20043;-83
2022/07/24 06:18:04;;;;;;;10.25;6.07;;;;;;;;;;4947838;28;20040;-83
2022/07/24 06:20:29;;;;;;;11.57;6.05;;;;;;;;;;4942971;28;20174;-83
2022/07/24 06:22:55;;;;;;;12.90;6.65;;;;;;;;;;4946705;29;20406;-82
2022/07/24 06:25:20;;;;;;;14.85;6.28;;;;;;;;;;4962718;28;20035;-82
2022/07/24 06:27:49;;;;;;;10.70;6.78;;;;;;;;;;4945844;28;20039;-82
2022/07/24 06:30:19;;;;;;;10.85;6.25;;;;;;;;;;4946597;28;20039;-82
2022/07/24 06:32:44;;;;;;;14.85;6.28;;;;;;;;;;4947191;28;20062;-83
2022/07/24 06:35:11;;;;;;;12.52;5.43;;;;;;;;;;4952242;28;20503;-83
2022/07/24 06:37:36;;;;;;;14.10;6.20;;;;;;;;;;4944941;28;20114;-82
2022/07/24 06:40:02;;;;;;;12.75;5.85;;;;;;;;;;4963480;28;20130;-82
2022/07/24 06:42:28;;;;;;;11.00;5.97;;;;;;;;;;4946290;28;20086;-83
2022/07/24 06:44:53;;;;;;;10.70;5.45;;;;;;;;;;4951980;28;20067;-83
2022/07/24 06:47:18;;;;;;;8.18;4.63;;;;;;;;;;4960860;28;20022;-82
2022/07/24 06:49:44;;;;;;;12.70;5.55;;;;;;;;;;4975986;28;20039;-83
2022/07/24 06:52:09;;;;;;;9.60;5.28;;;;;;;;;;4951801;28;20144;-83
2022/07/24 06:54:34;;;;;;;8.07;4.70;;;;;;;;;;4940191;28;20387;-83
2022/07/24 06:57:00;;;;;;;6.78;4.18;;;;;;;;;;4957611;28;20613;-83
2022/07/24 06:59:25;;;;;;;7.95;4.95;;;;;;;;;;4953501;28;20027;-84
2022/07/24 07:01:51;;;;;;;8.98;4.45;;;;;;;;;;4936790;28;20031;-84
2022/07/24 07:04:17;;;;;;;5.80;4.28;;;;;;;;;;4936643;28;20496;-85
2022/07/24 07:06:42;;;;;;;8.70;4.20;;;;;;;;;;4942225;28;20047;-85
2022/07/24 07:09:07;;;;;;;9.32;5.40;;;;;;;;;;4944340;28;20039;-85
2022/07/24 07:11:33;;;;;;;6.28;3.58;;;;;;;;;;4942953;28;20048;-86
2022/07/24 07:13:58;;;;;;;6.55;3.20;;;;;;;;;;4956743;28;20035;-85
2022/07/24 07:16:23;;;;;;;4.70;3.25;;;;;;;;;;4939288;28;21189;-85
2022/07/24 07:18:49;;;;;;;6.95;3.58;;;;;;;;;;4956130;28;20067;-85
2022/07/24 07:21:14;;;;;;;5.18;3.40;;;;;;;;;;4938379;28;20550;-85
2022/07/24 07:23:39;;;;;;;5.38;3.10;;;;;;;;;;4940643;28;20098;-86
2022/07/24 07:26:05;;;;;;;5.03;3.20;;;;;;;;;;4955351;28;20058;-86
2022/07/24 07:28:30;;;;;;;5.10;3.35;;;;;;;;;;4942210;28;20118;-85
2022/07/24 07:30:55;;;;;;;5.20;3.25;;;;;;;;;;4939980;28;20086;-87
2022/07/24 07:33:21;;;;;;;6.10;2.95;;;;;;;;;;4939418;28;20042;-87
2022/07/24 07:35:47;;;;;;;4.85;3.13;;;;;;;;;;4940789;28;20050;-87
2022/07/24 07:38:12;;;;;;;6.07;3.60;;;;;;;;;;4942372;28;20031;-91
2022/07/24 07:40:37;;;;;;;7.10;3.30;;;;;;;;;;4945915;29;20039;-86
2022/07/24 07:43:03;;;;;;;4.28;3.05;;;;;;;;;;4963342;28;20031;-85
2022/07/24 07:45:28;;;;;;;5.13;2.88;;;;;;;;;;4948652;28;20039;-90
2022/07/24 07:47:53;;;;;;;4.57;3.15;;;;;;;;;;4943243;28;20141;-91
2022/07/24 07:50:19;;;;;;;5.63;3.33;;;;;;;;;;4942251;28;20035;-91
2022/07/24 07:52:44;;;;;;;5.40;3.50;;;;;;;;;;4946096;28;20491;-91
2022/07/24 07:55:10;;;;;;;9.52;4.03;;;;;;;;;;4944902;28;20036;-89
2022/07/24 07:57:36;;;;;;;4.40;3.00;;;;;;;;;;4945475;28;20035;-89
2022/07/24 08:00:02;;;;;;;5.10;3.42;;;;;;;;;;4945925;28;20118;-86
2022/07/24 08:02:29;;;;;;;8.30;3.78;;;;;;;;;;4946707;28;20519;-91
2022/07/24 08:04:54;;;;;;;6.40;3.40;;;;;;;;;;4946897;28;20062;-91
2022/07/24 08:07:20;;;;;;;6.72;3.22;;;;;;;;;;4963979;28;20110;-90
2022/07/24 08:09:45;;;;;;;5.88;3.08;;;;;;;;;;4945422;28;20073;-91
2022/07/24 08:12:10;;;;;;;4.70;3.50;;;;;;;;;;4962012;28;20035;-91
2022/07/24 08:14:36;;;;;;;4.95;3.13;;;;;;;;;;4949697;28;20098;-93
2022/07/24 08:17:02;;;;;;;5.85;2.88;;;;;;;;;;4945883;28;20598;-90
2022/07/24 08:19:28;;;;;;;9.75;3.33;;;;;;;;;;4945241;29;20059;-90
2022/07/24 08:21:53;;;;;;;7.80;3.30;;;;;;;;;;4947643;28;20039;-87
2022/07/24 08:24:20;;;;;;;4.65;3.13;;;;;;;;;;4943308;28;20554;-87
2022/07/24 08:26:49;;;;;;;5.85;3.25;;;;;;;;;;4958364;28;20054;-89
2022/07/24 08:29:15;;;;;;;7.78;3.40;;;;;;;;;;4944870;28;20027;-89
2022/07/24 08:31:40;;;;;;;3.88;2.85;;;;;;;;;;4945363;29;20036;-90
2022/07/24 08:34:06;;;;;;;5.40;3.08;;;;;;;;;;4945630;28;20086;-89
2022/07/24 08:36:31;;;;;;;4.55;2.50;;;;;;;;;;4940231;28;20039;-89
2022/07/24 08:38:57;;;;;;;5.35;2.83;;;;;;;;;;4943069;28;20073;-84
2022/07/24 08:41:22;;;;;;;7.50;3.53;;;;;;;;;;4960878;28;20051;-90
2022/07/24 08:43:50;;;;;;;4.32;2.50;;;;;;;;;;4940004;28;20625;-88
2022/07/24 08:46:16;;;;;;;3.63;2.90;;;;;;;;;;4942216;28;20050;-88
2022/07/24 08:48:46;;;;;;;3.45;2.55;;;;;;;;;;4947077;28;20040;-89
2022/07/24 08:51:36;;;;;;;6.63;2.78;;;;;;;;;;4946277;29;20043;-91
2022/07/24 08:54:02;;;;;;;4.03;2.70;;;;;;;;;;4944954;28;20130;-91
2022/07/24 08:56:28;;;;;;;5.30;3.10;;;;;;;;;;4942305;28;20039;-90
2022/07/24 08:58:56;;;;;;;4.93;2.97;;;;;;;;;;4956862;28;20027;-90
2022/07/24 09:01:22;;;;;;;7.68;2.97;;;;;;;;;;4940410;28;20039;-90
2022/07/24 09:03:52;;;;;;;4.95;2.67;;;;;;;;;;4944073;28;20049;-91
2022/07/24 09:06:29;;;;;;;4.65;2.97;;;;;;;;;;4945518;28;20538;-91
2022/07/24 09:09:05;;;;;;;3.97;2.80;;;;;;;;;;4939033;28;20042;-91
2022/07/24 09:11:36;;;;;;;5.65;2.70;;;;;;;;;;4934368;28;20043;-88
2022/07/24 09:16:52;;;;;;;4.82;2.75;;;;;;;;;;4940603;28;20529;-89
2022/07/24 09:19:21;;;;;;;8.65;2.60;;;;;;;;;;4944590;28;21368;-91
2022/07/24 09:21:49;;;;;;;3.35;2.53;;;;;;;;;;4939291;28;20035;-91
2022/07/24 09:24:20;;;;;;;3.13;2.60;;;;;;;;;;4942019;28;20039;-92
2022/07/24 09:26:49;;;;;;;5.05;2.38;;;;;;;;;;4945922;28;20739;-92
2022/07/24 09:29:16;;;;;;;3.55;2.50;;;;;;;;;;4957865;28;20077;-84
2022/07/24 09:31:58;;;;;;;5.00;2.70;;;;;;;;;;4940894;29;20027;-91
2022/07/24 09:34:25;;;;;;;4.55;2.75;;;;;;;;;;4954219;28;20038;-92
2022/07/24 09:36:56;;;;;;;3.72;2.88;;;;;;;;;;4950559;28;20039;-91
2022/07/24 09:39:24;;;;;;;4.53;3.08;;;;;;;;;;4935077;28;20111;-90
2022/07/24 09:41:52;;;;;;;4.50;2.93;;;;;;;;;;4888014;28;1534253;-90
2022/07/24 09:44:18;;;;;;;3.75;2.80;;;;;;;;;;4961564;28;20020;-91
2022/07/24 09:47:11;;;;;;;5.18;3.17;;;;;;;;;;4948165;28;20432;-90
2022/07/24 09:49:38;;;;;;;4.50;3.28;;;;;;;;;;4940955;28;20646;-90
2022/07/24 09:52:07;;;;;;;4.38;3.25;;;;;;;;;;4941573;28;20431;-87
2022/07/24 09:54:32;;;;;;;5.28;3.42;;;;;;;;;;4956128;28;20117;-91
2022/07/24 09:57:24;;;;;;;6.32;3.85;;;;;;;;;;4940449;28;20055;-90
2022/07/24 10:00:01;;;;;;;4.35;3.15;;;;;;;;;;4939429;28;20039;-91
2022/07/24 10:02:30;;;;;;;4.75;3.15;;;;;;;;;;4941610;28;20043;-88
2022/07/24 10:04:57;;;;;;;6.15;3.40;;;;;;;;;;4945474;28;20561;-89
2022/07/24 10:07:28;;;;;;;5.40;3.20;;;;;;;;;;4957761;28;20034;-91
2022/07/24 10:09:55;;;;;;;7.28;3.47;;;;;;;;;;4945571;28;20157;-94
2022/07/24 10:12:26;;;;;;;5.20;3.50;;;;;;;;;;4946958;28;20455;-94
2022/07/24 10:14:59;;;;;;;7.60;4.07;;;;;;;;;;4943659;28;21420;-89
2022/07/24 10:18:01;;;;;;;5.93;3.22;;;;;;;;;;4960147;28;20122;-90
2022/07/24 10:20:45;;;;;;;5.60;3.45;;;;;;;;;;4936265;28;20047;-92
2022/07/24 10:23:25;;;;;;;4.93;3.30;;;;;;;;;;4945354;28;20029;-89
2022/07/24 10:26:03;;;;;;;6.60;3.50;;;;;;;;;;4943147;29;20068;-91
2022/07/24 10:28:42;;;;;;;5.22;3.13;;;;;;;;;;4943675;29;20050;-91
2022/07/24 10:31:12;;;;;;;6.78;3.83;;;;;;;;;;4942729;28;20042;-93
2022/07/24 10:33:40;;;;;;;5.82;2.78;;;;;;;;;;4942738;28;20073;-91
2022/07/24 10:36:41;;;;;;;3.83;2.95;;;;;;;;;;4944170;28;20414;-92
2022/07/24 10:39:24;;;;;;;6.32;3.80;;;;;;;;;;4968549;28;20126;-90
2022/07/24 10:42:04;;;;;;;3.53;2.78;;;;;;;;;;4941043;28;20047;-94
2022/07/24 10:44:30;;;;;;;3.97;2.90;;;;;;;;;;4934850;28;20075;-89
2022/07/24 10:46:57;;;;;;;5.03;3.00;;;;;;;;;;4966305;28;20450;-88
2022/07/24 10:49:36;;;;;;;3.50;2.95;;;;;;;;;;4944985;28;20577;-93
2022/07/24 10:52:02;;;;;;;5.88;2.75;;;;;;;;;;4945382;28;20031;-92
2022/07/24 10:54:27;;;;;;;6.47;3.22;;;;;;;;;;4947431;28;20410;-87
2022/07/24 10:56:53;;;;;;;5.25;2.90;;;;;;;;;;4945873;28;20140;-89
2022/07/24 10:59:35;;;;;;;4.70;2.90;;;;;;;;;;4945013;28;20122;-89
2022/07/24 11:02:46;;;;;;;4.03;2.92;;;;;;;;;;4968364;28;20066;-92
2022/07/24 11:05:31;;;;;;;4.38;2.78;;;;;;;;;;4938262;28;20058;-85
2022/07/24 11:08:13;;;;;;;14.98;3.08;;;;;;;;;;4958187;28;20046;-88
2022/07/24 11:10:56;;;;;;;5.93;3.17;;;;;;;;;;4952643;28;21051;-91
2022/07/24 11:13:31;;;;;;;;;;;;;;;;;;4975281;28;20050;-92
2022/07/24 11:16:29;;;;;;;4.25;2.90;;;;;;;;;;4950873;28;19958;-93
2022/07/24 11:18:55;;;;;;;4.38;3.10;;;;;;;;;;4936518;28;20028;-92
2022/07/24 11:21:47;;;;;;;5.10;3.03;;;;;;;;;;4978568;28;20458;-94
2022/07/24 11:24:25;;;;;;;4.18;2.90;;;;;;;;;;4941912;28;20071;-92
2022/07/24 11:26:52;;;;;;;7.40;3.30;;;;;;;;;;4948492;28;20046;-87
2022/07/24 11:29:23;;;;;;;4.55;2.60;;;;;;;;;;4945170;28;20031;-86
2022/07/24 11:31:58;;;;;;;8.63;3.38;;;;;;;;;;4977915;28;20097;-92
2022/07/24 11:34:28;;;;;;;13.13;3.38;;;;;;;;;;4961391;28;20132;-92
2022/07/24 11:36:55;;;;;;;5.60;3.22;;;;;;;;;;4942425;28;20046;-88
2022/07/24 11:39:28;;;;;;;3.88;3.00;;;;;;;;;;4941549;28;20135;-87
2022/07/24 11:42:00;;;;;;;4.18;3.40;;;;;;;;;;4940904;28;20070;-89
2022/07/24 11:44:28;;;;;;;3.85;2.95;;;;;;;;;;4938987;28;20098;-93
2022/07/24 11:46:57;;;;;;;6.18;3.25;;;;;;;;;;4947342;28;20047;-86
2022/07/24 11:49:23;;;;;;;5.13;3.00;;;;;;;;;;4947539;28;20163;-87
2022/07/24 11:51:51;;;;;;;6.15;3.60;;;;;;;;;;4944336;28;20050;-94
2022/07/24 11:54:27;;;;;;;4.88;3.45;;;;;;;;;;4942507;28;20129;-87
2022/07/24 11:56:56;;;;;;;9.45;3.20;;;;;;;;;;4938137;28;20047;-88
2022/07/24 11:59:26;;;;;;;3.47;2.63;;;;;;;;;;4939378;28;20074;-91
2022/07/24 12:01:58;;;;;;;6.50;3.13;;;;;;;;;;4945690;28;20052;-95
2022/07/24 12:04:24;;;;;;;4.60;3.30;;;;;;;;;;4956856;28;20048;-88
2022/07/24 12:06:49;;;;;;;5.78;3.20;;;;;;;;;;4942650;28;20050;-90
2022/07/24 12:09:23;;;;;;;4.65;2.67;;;;;;;;;;4942601;28;20160;-92
2022/07/24 12:11:49;;;;;;;4.10;3.40;;;;;;;;;;4941297;28;20031;-88
2022/07/24 12:14:19;;;;;;;4.85;3.30;;;;;;;;;;4942340;28;20090;-92
2022/07/24 12:16:55;;;;;;;8.73;3.50;;;;;;;;;;4944814;28;20027;-94
2022/07/24 12:19:26;;;;;;;6.93;3.28;;;;;;;;;;4955002;28;20039;-89
2022/07/24 12:21:53;;;;;;;4.68;3.20;;;;;;;;;;4943970;28;20043;-91
2022/07/24 12:24:20;;;;;;;4.97;3.08;;;;;;;;;;4961687;28;20106;-88
2022/07/24 12:26:56;;;;;;;5.80;3.30;;;;;;;;;;4945917;29;20038;-89
2022/07/24 12:29:23;;;;;;;9.07;3.60;;;;;;;;;;4954938;28;20027;-90
2022/07/24 12:31:49;;;;;;;5.80;3.53;;;;;;;;;;4962441;28;20032;-94
2022/07/24 12:34:15;;;;;;;3.47;2.90;;;;;;;;;;4957814;28;20047;-90
2022/07/24 12:36:41;;;;;;;6.03;3.25;;;;;;;;;;4948458;28;20388;-92
2022/07/24 12:39:07;;;;;;;4.85;3.50;;;;;;;;;;4944518;28;20097;-94
2022/07/24 12:41:43;;;;;;;4.70;3.40;;;;;;;;;;4941817;28;20280;-92
2022/07/24 12:44:08;;;;;;;3.97;3.20;;;;;;;;;;4941809;28;20047;-93
2022/07/24 12:46:42;;;;;;;4.47;3.38;;;;;;;;;;4945092;28;20051;-94
2022/07/24 12:49:16;;;;;;;5.25;3.40;;;;;;;;;;4943714;28;20114;-93
2022/07/24 12:52:28;;;;;;;4.68;3.30;;;;;;;;;;4943110;28;20075;-93
2022/07/24 12:54:58;;;;;;;5.13;3.40;;;;;;;;;;4947312;28;20047;-90
2022/07/24 12:57:24;;;;;;;5.38;3.28;;;;;;;;;;4938936;28;20296;-87
2022/07/24 12:59:50;;;;;;;8.50;3.60;;;;;;;;;;4941639;28;20175;-92
2022/07/24 13:02:20;;;;;;;5.72;3.55;;;;;;;;;;4956331;28;20023;-88
2022/07/24 13:05:16;;;;;;;6.60;3.63;;;;;;;;;;4942375;28;20396;-91
2022/07/24 13:07:51;;;;;;;5.63;3.80;;;;;;;;;;4939762;29;20039;-91
2022/07/24 13:10:16;;;;;;;5.82;4.10;;;;;;;;;;4923602;28;20047;-86
2022/07/24 13:13:07;;;;;;;4.45;3.15;;;;;;;;;;4951139;28;20011;-91
2022/07/24 13:15:33;;;;;;;4.82;3.65;;;;;;;;;;4960676;28;20052;-91
2022/07/24 13:18:14;;;;;;;;;;;;;;;;;;;;;
2022/07/24 13:20:54;;;;;;;5.20;3.80;;;;;;;;;;4949642;28;20047;-90
2022/07/24 13:23:46;;;;;;;6.30;4.05;;;;;;;;;;4943278;28;20095;-92
2022/07/24 13:29:34;;;;;;;4.72;3.60;;;;;;;;;;4968819;28;20039;-94
2022/07/24 13:32:38;;;;;;;5.25;3.88;;;;;;;;;;4956754;28;20049;-91
2022/07/24 13:35:11;;;;;;;5.63;3.92;;;;;;;;;;4958581;28;20028;-89
2022/07/24 13:38:02;;;;;;;6.00;3.40;;;;;;;;;;4941204;28;20046;-88
2022/07/24 13:40:27;;;;;;;5.05;3.92;;;;;;;;;;4950216;28;20566;-91
2022/07/24 13:42:53;;;;;;;4.72;3.53;;;;;;;;;;4930175;28;20038;-88
2022/07/24 13:45:20;;;;;;;4.68;3.60;;;;;;;;;;4933508;28;20035;-87
2022/07/24 13:47:46;;;;;;;3.97;3.55;;;;;;;;;;4961351;28;20666;-94
2022/07/24 13:50:14;;;;;;;5.78;3.28;;;;;;;;;;4959820;28;20062;-92
2022/07/24 13:52:43;;;;;;;5.13;3.60;;;;;;;;;;4946742;28;20051;-87
2022/07/24 13:55:09;;;;;;;6.10;3.40;;;;;;;;;;4942657;28;20046;-87
2022/07/24 13:57:34;;;;;;;4.25;3.35;;;;;;;;;;4945914;28;20039;-88
2022/07/24 14:00:00;;;;;;;4.70;3.33;;;;;;;;;;4936611;28;20035;-91
2022/07/24 14:02:27;;;;;;;4.65;3.08;;;;;;;;;;4953487;28;20090;-86
2022/07/24 14:05:02;;;;;;;4.13;3.65;;;;;;;;;;4944913;28;20060;-91
2022/07/24 14:07:28;;;;;;;5.30;3.80;;;;;;;;;;4944476;28;20750;-86
2022/07/24 14:10:01;;;;;;;4.82;3.40;;;;;;;;;;4942595;28;20027;-87
2022/07/24 14:12:28;;;;;;;4.65;3.58;;;;;;;;;;4957310;28;20035;-91
2022/07/24 14:14:56;;;;;;;5.60;3.92;;;;;;;;;;4942892;28;20086;-94
2022/07/24 14:17:26;;;;;;;3.88;3.47;;;;;;;;;;4942854;28;20090;-93
2022/07/24 14:19:52;;;;;;;6.38;3.70;;;;;;;;;;4946991;28;20102;-92
2022/07/24 14:22:25;;;;;;;6.22;3.50;;;;;;;;;;4945222;28;20570;-93
2022/07/24 14:24:52;;;;;;;4.57;3.50;;;;;;;;;;4943288;28;20062;-91
2022/07/24 14:27:20;;;;;;;4.78;3.33;;;;;;;;;;4946949;28;20039;-93
2022/07/24 14:29:57;;;;;;;;;;;;;;;;;;;;;
2022/07/24 14:35:35;;;;;;;4.55;3.35;;;;;;;;;;4961025;28;20102;-91
2022/07/24 14:38:05;;;;;;;5.88;3.22;;;;;;;;;;4957564;28;20023;-94
2022/07/24 14:40:53;;;;;;;3.88;3.35;;;;;;;;;;4942888;28;20043;-94
2022/07/24 14:43:21;;;;;;;6.78;3.50;;;;;;;;;;4943141;28;20047;-94
2022/07/24 14:45:57;;;;;;;4.13;3.28;;;;;;;;;;4943096;28;20068;-92
2022/07/24 14:48:27;;;;;;;4.10;3.30;;;;;;;;;;4942304;28;20126;-94
2022/07/24 14:50:53;;;;;;;3.83;3.22;;;;;;;;;;4944999;28;20431;-93
2022/07/24 14:53:19;;;;;;;4.47;3.15;;;;;;;;;;4908707;28;20514;-87
2022/07/24 14:55:46;;;;;;;5.15;3.10;;;;;;;;;;4945210;28;22789;-94